Time;durP1;ratioP1;P1;durP2;ratioP2;P2;SDS_P1;SDS_P2;PMS_P1;PMS_P2;Temp;Humidity;BMP_temperature;BMP_pressure;BME280_temperature;BME280_humidity;BME280_pressure;Samples;Min_cycle;Max_cycle;Signal;HPM_P1;HPM_P2
2024/04/25 00:01:11;;;;;;;581.00;558.23;;;5.80;99.70;;;;;;5389187;26;20462;-71
2024/04/25 00:03:42;;;;;;;543.40;522.30;;;5.80;99.90;;;;;;5377089;26;20509;-71
2024/04/25 00:06:11;;;;;;;573.73;550.63;;;5.80;99.90;;;;;;5397526;26;20573;-72
2024/04/25 00:08:39;;;;;;;492.90;474.50;;;5.90;99.90;;;;;;5397567;26;20457;-72
2024/04/25 00:11:08;;;;;;;538.90;518.40;;;5.90;99.60;;;;;;5379166;26;20551;-72
2024/04/25 00:13:36;;;;;;;426.93;411.83;;;5.90;98.10;;;;;;5383354;26;20516;-72
2024/04/25 00:16:05;;;;;;;433.03;417.30;;;5.90;96.50;;;;;;5400264;26;20577;-72
2024/04/25 00:18:33;;;;;;;379.20;366.10;;;5.90;96.50;;;;;;5397610;26;20954;-72
2024/04/25 00:21:04;;;;;;;387.83;375.07;;;5.90;96.50;;;;;;5382763;26;20584;-72
2024/04/25 00:23:33;;;;;;;415.90;401.40;;;5.90;96.50;;;;;;5396947;26;20482;-72
2024/04/25 00:26:01;;;;;;;358.97;347.07;;;5.90;96.50;;;;;;5397302;26;20465;-72
2024/04/25 00:28:30;;;;;;;397.13;383.47;;;5.90;96.50;;;;;;5397196;26;20600;-72
2024/04/25 00:30:59;;;;;;;421.63;406.97;;;5.90;96.50;;;;;;5395565;26;20465;-72
2024/04/25 00:33:27;;;;;;;408.73;394.23;;;5.90;96.50;;;;;;5382064;26;20808;-72
2024/04/25 00:35:56;;;;;;;466.73;447.77;;;5.90;96.50;;;;;;5382775;26;20467;-72
2024/04/25 00:38:27;;;;;;;468.73;451.70;;;5.80;99.60;;;;;;5397167;26;20591;-72
2024/04/25 00:40:55;;;;;;;434.20;418.47;;;5.80;96.40;;;;;;5396560;26;20465;-72
2024/04/25 00:43:32;;;;;;;430.57;414.77;;;5.80;96.40;;;;;;5369118;26;20588;-72
2024/04/25 00:46:00;;;;;;;484.70;466.70;;;5.90;96.50;;;;;;5398983;26;21015;-71
2024/04/25 00:48:30;;;;;;;524.43;505.10;;;5.90;96.50;;;;;;5379726;26;20518;-72
2024/04/25 00:51:01;;;;;;;429.00;413.53;;;5.90;96.50;;;;;;5383882;26;20470;-72
2024/04/25 00:53:33;;;;;;;407.00;393.13;;;5.90;96.50;;;;;;5378916;26;20466;-71
2024/04/25 00:56:02;;;;;;;429.30;414.30;;;5.80;99.70;;;;;;5399302;26;20541;-72
2024/04/25 00:58:33;;;;;;;374.57;361.77;;;5.80;99.90;;;;;;5403003;26;21115;-72
2024/04/25 01:01:03;;;;;;;396.13;382.03;;;5.70;99.90;;;;;;5400621;26;20449;-72
2024/04/25 01:03:33;;;;;;;670.03;640.80;;;5.70;99.90;;;;;;5396648;26;20687;-73
2024/04/25 01:06:05;;;;;;;698.67;666.40;;;5.70;99.90;;;;;;5398058;26;20520;-73
2024/04/25 01:08:36;;;;;;;670.53;640.97;;;5.60;99.90;;;;;;5402996;26;20856;-73
2024/04/25 01:11:06;;;;;;;570.13;546.43;;;5.60;99.90;;;;;;5388099;26;20466;-76
2024/04/25 01:13:34;;;;;;;861.70;818.60;;;5.50;99.90;;;;;;5405463;26;20544;-78
2024/04/25 01:16:04;;;;;;;904.97;853.27;;;5.30;99.90;;;;;;5355745;26;21037;-77
2024/04/25 01:18:32;;;;;;;903.07;850.40;;;5.10;99.90;;;;;;5373562;26;20474;-77
2024/04/25 01:21:03;;;;;;;925.47;868.87;;;5.20;99.90;;;;;;5398373;26;20516;-78
2024/04/25 01:23:37;;;;;;;982.03;919.67;;;5.00;99.90;;;;;;5415306;26;20578;-77
2024/04/25 01:26:09;;;;;;;969.80;909.03;;;5.00;99.90;;;;;;5400894;26;20998;-77
2024/04/25 01:28:40;;;;;;;926.63;873.57;;;5.00;99.90;;;;;;5388407;26;20540;-77
2024/04/25 01:31:11;;;;;;;958.77;901.33;;;5.00;99.90;;;;;;5398816;26;20470;-78
2024/04/25 01:33:41;;;;;;;1075.67;999.53;;;4.90;99.90;;;;;;5395024;26;21108;-77
2024/04/25 01:36:13;;;;;;;1223.17;999.90;;;4.90;99.90;;;;;;5373641;26;20470;-77
2024/04/25 01:38:41;;;;;;;1210.70;999.90;;;4.90;99.90;;;;;;5374101;26;20473;-77
2024/04/25 01:41:12;;;;;;;1247.10;999.90;;;4.80;99.90;;;;;;5399492;26;20582;-78
2024/04/25 01:43:41;;;;;;;1231.43;999.90;;;4.80;99.90;;;;;;5381855;26;20482;-77
2024/04/25 01:46:09;;;;;;;1232.47;999.90;;;4.80;99.90;;;;;;5381543;26;20456;-77
2024/04/25 01:48:38;;;;;;;1256.87;999.90;;;4.80;99.90;;;;;;5374561;26;20469;-78
2024/04/25 01:51:07;;;;;;;1240.07;999.90;;;4.80;99.90;;;;;;5395348;26;21111;-77
2024/04/25 01:53:35;;;;;;;1229.40;999.90;;;4.80;99.90;;;;;;5382186;26;20461;-77
2024/04/25 01:56:04;;;;;;;1242.73;999.90;;;4.80;99.90;;;;;;5374475;26;20474;-77
2024/04/25 01:58:35;;;;;;;1226.30;999.90;;;4.80;99.90;;;;;;5404749;26;20518;-77
2024/04/25 02:01:03;;;;;;;1219.93;999.90;;;4.80;99.90;;;;;;5388979;26;20486;-77
2024/04/25 02:03:32;;;;;;;1212.17;999.90;;;4.70;99.90;;;;;;5402576;26;20477;-77
2024/04/25 02:06:01;;;;;;;1207.13;999.90;;;4.70;99.90;;;;;;5388383;26;21063;-76
2024/04/25 02:08:29;;;;;;;1210.07;999.90;;;4.70;99.90;;;;;;5391835;26;20518;-76
2024/04/25 02:10:58;;;;;;;1218.23;999.90;;;4.70;99.90;;;;;;5386088;26;20464;-77
2024/04/25 02:13:26;;;;;;;1215.93;999.90;;;4.70;99.90;;;;;;5398993;26;20469;-77
2024/04/25 02:15:58;;;;;;;1205.57;999.90;;;4.70;99.90;;;;;;5371769;26;20970;-76
2024/04/25 02:18:26;;;;;;;1210.83;999.90;;;4.70;99.90;;;;;;5389505;26;20508;-76
2024/04/25 02:26:23;;;;;;;1195.00;999.90;;;4.60;99.90;;;;;;5383419;26;20518;-76
2024/04/25 02:28:52;;;;;;;1193.73;999.90;;;4.60;99.90;;;;;;5404058;26;20889;-76
2024/04/25 02:31:28;;;;;;;1209.63;999.90;;;4.60;99.90;;;;;;5405553;26;20462;-76
2024/04/25 02:33:56;;;;;;;1194.03;999.90;;;4.60;99.90;;;;;;5396096;26;20474;-76
2024/04/25 02:36:25;;;;;;;1196.63;999.90;;;4.60;99.90;;;;;;5401578;26;20469;-76
2024/04/25 02:38:51;;;;;;;1177.87;999.90;;;4.60;99.90;;;;;;5401183;26;20509;-76
2024/04/25 02:41:20;;;;;;;1131.07;999.90;;;4.60;99.90;;;;;;5387626;26;20468;-76
2024/04/25 02:43:45;;;;;;;1126.13;999.90;;;4.60;99.90;;;;;;5400994;26;20243;-76
2024/04/25 02:46:14;;;;;;;1146.07;999.90;;;4.50;99.90;;;;;;5396121;26;20956;-76
2024/04/25 02:48:42;;;;;;;1143.93;999.90;;;4.50;99.90;;;;;;5371680;26;20248;-76
2024/04/25 02:51:11;;;;;;;1099.47;999.90;;;4.50;99.90;;;;;;5392174;26;20566;-76
2024/04/25 02:53:37;;;;;;;1129.23;999.90;;;4.40;99.90;;;;;;5404143;26;20458;-76
2024/04/25 02:56:06;;;;;;;1149.37;999.90;;;4.40;99.90;;;;;;5377275;26;20528;-76
2024/04/25 02:58:32;;;;;;;1145.43;999.90;;;4.40;99.90;;;;;;5355944;26;20470;-76
2024/04/25 03:01:02;;;;;;;1128.00;999.90;;;4.40;99.90;;;;;;5364959;26;20512;-76
2024/04/25 03:03:28;;;;;;;1173.10;999.90;;;4.30;99.90;;;;;;5384475;26;21091;-75
2024/04/25 03:06:00;;;;;;;1158.90;999.90;;;4.30;99.90;;;;;;5387500;26;20474;-75
2024/04/25 03:08:26;;;;;;;1148.30;999.90;;;4.30;99.90;;;;;;5389253;26;20524;-75
2024/04/25 03:10:55;;;;;;;1153.30;999.90;;;4.20;99.90;;;;;;5399288;26;20464;-75
2024/04/25 03:13:20;;;;;;;1158.47;999.90;;;4.20;99.90;;;;;;5352264;26;20458;-75
2024/04/25 03:15:49;;;;;;;1152.27;999.90;;;4.10;99.90;;;;;;5392387;26;20476;-76
2024/04/25 03:18:15;;;;;;;1147.17;999.90;;;4.00;99.90;;;;;;5372505;26;20465;-76
2024/04/25 03:20:44;;;;;;;1195.17;999.90;;;4.00;99.90;;;;;;5410572;26;20811;-75
2024/04/25 03:23:12;;;;;;;1160.70;999.90;;;4.00;99.90;;;;;;5385490;26;20234;-75
2024/04/25 03:25:41;;;;;;;1120.03;999.90;;;3.90;99.90;;;;;;5399185;26;20576;-75
2024/04/25 03:28:07;;;;;;;1144.80;999.90;;;3.90;99.90;;;;;;5395723;26;20516;-75
2024/04/25 03:30:35;;;;;;;1182.87;999.90;;;3.80;99.90;;;;;;5390978;26;20468;-75
2024/04/25 03:33:01;;;;;;;1138.60;999.90;;;3.80;99.90;;;;;;5385833;26;20575;-75
2024/04/25 03:35:30;;;;;;;1162.57;999.90;;;3.70;99.90;;;;;;5377219;26;20458;-75
2024/04/25 03:37:59;;;;;;;1182.40;999.90;;;3.70;99.90;;;;;;5394056;26;20458;-75
2024/04/25 03:40:30;;;;;;;1167.13;999.90;;;3.60;99.90;;;;;;5394844;26;20462;-75
2024/04/25 03:42:58;;;;;;;1175.93;999.90;;;3.60;99.90;;;;;;5376427;26;20569;-74
2024/04/25 03:45:27;;;;;;;1160.17;999.90;;;3.60;99.90;;;;;;5376421;26;20465;-75
2024/04/25 03:47:56;;;;;;;1186.17;999.90;;;3.60;99.90;;;;;;5398211;26;20487;-75
2024/04/25 03:50:25;;;;;;;1184.77;999.90;;;3.60;99.90;;;;;;5349613;26;20511;-74
2024/04/25 03:52:53;;;;;;;1172.43;999.90;;;3.50;99.90;;;;;;5409780;26;21010;-74
2024/04/25 03:55:22;;;;;;;1135.70;999.90;;;3.50;99.90;;;;;;5386729;26;21006;-75
2024/04/25 03:57:53;;;;;;;1175.77;999.90;;;3.50;99.90;;;;;;5371367;26;20478;-75
2024/04/25 04:00:25;;;;;;;1198.80;999.90;;;3.50;99.90;;;;;;5381746;26;20516;-75
2024/04/25 04:02:55;;;;;;;1238.27;999.90;;;3.50;99.90;;;;;;5392913;26;20450;-74
2024/04/25 04:05:23;;;;;;;1218.87;999.90;;;3.60;99.90;;;;;;5393290;26;20474;-75
2024/04/25 04:07:54;;;;;;;1260.90;999.90;;;3.60;99.90;;;;;;5379686;26;20524;-75
2024/04/25 04:10:23;;;;;;;1223.67;999.90;;;3.60;99.90;;;;;;5379347;26;20445;-74
2024/04/25 04:12:54;;;;;;;1198.23;999.90;;;3.70;99.90;;;;;;5379052;26;20478;-74
2024/04/25 04:15:23;;;;;;;1189.03;999.90;;;3.70;99.90;;;;;;5373395;26;20481;-74
2024/04/25 04:17:51;;;;;;;1225.47;999.90;;;3.80;99.90;;;;;;5358440;26;20544;-74
2024/04/25 04:20:19;;;;;;;1200.23;999.90;;;3.80;99.90;;;;;;5376124;26;21060;-74
2024/04/25 04:22:48;;;;;;;1195.97;999.90;;;3.80;99.90;;;;;;5390608;26;20593;-75
2024/04/25 04:25:20;;;;;;;1191.50;999.90;;;3.80;99.90;;;;;;5379614;26;20458;-74
2024/04/25 04:27:50;;;;;;;1166.37;999.90;;;3.80;99.90;;;;;;5393190;26;20524;-73
2024/04/25 04:30:21;;;;;;;1183.33;999.90;;;3.80;99.90;;;;;;5374508;26;20475;-74
2024/04/25 04:32:50;;;;;;;1201.37;999.90;;;3.80;99.90;;;;;;5386103;26;20468;-74
2024/04/25 04:35:18;;;;;;;1187.63;999.90;;;3.80;99.90;;;;;;5373101;26;20808;-74
2024/04/25 04:37:49;;;;;;;1156.03;999.90;;;3.80;99.90;;;;;;5369692;26;20458;-74
2024/04/25 04:40:17;;;;;;;1196.93;999.90;;;3.80;99.90;;;;;;5380467;26;20469;-75
2024/04/25 04:42:46;;;;;;;1175.23;999.90;;;3.80;99.90;;;;;;5382001;26;21071;-74
2024/04/25 04:45:15;;;;;;;1153.27;999.90;;;3.80;99.90;;;;;;5397283;26;21081;-74
2024/04/25 04:47:46;;;;;;;1151.90;999.90;;;3.80;99.90;;;;;;5384676;26;20479;-74
2024/04/25 04:50:17;;;;;;;1148.03;999.90;;;3.80;99.90;;;;;;5381724;26;20465;-74
2024/04/25 04:52:46;;;;;;;1150.67;999.90;;;3.80;99.90;;;;;;5396488;26;20458;-74
2024/04/25 04:55:15;;;;;;;1159.57;999.90;;;3.80;99.90;;;;;;5396916;26;20580;-74
2024/04/25 04:57:43;;;;;;;1171.83;999.90;;;3.90;99.90;;;;;;5381217;26;20473;-74
2024/04/25 05:00:13;;;;;;;1168.30;999.90;;;3.90;99.90;;;;;;5406062;26;20517;-74
2024/04/25 05:02:41;;;;;;;1160.27;999.90;;;4.00;99.90;;;;;;5396470;26;20555;-74
2024/04/25 05:05:12;;;;;;;1130.73;999.90;;;4.10;99.90;;;;;;5396947;26;20581;-74
2024/04/25 05:07:41;;;;;;;1125.27;999.90;;;4.10;99.90;;;;;;5393974;26;21019;-74
2024/04/25 05:10:09;;;;;;;1097.57;999.90;;;4.20;99.90;;;;;;5369691;26;20583;-74
2024/04/25 05:12:38;;;;;;;1055.77;974.93;;;4.30;99.90;;;;;;5392760;26;20469;-74
2024/04/25 05:15:07;;;;;;;1073.70;991.70;;;4.30;99.90;;;;;;5399515;26;20461;-74
2024/04/25 05:17:36;;;;;;;1034.83;955.17;;;4.30;99.90;;;;;;5396494;26;20462;-74
2024/04/25 05:20:04;;;;;;;1043.27;962.23;;;4.30;99.90;;;;;;5393511;26;20469;-74
2024/04/25 05:22:36;;;;;;;1040.37;960.17;;;4.30;99.90;;;;;;5378868;26;20586;-73
2024/04/25 05:25:04;;;;;;;1035.53;954.63;;;4.30;99.90;;;;;;5387871;26;20504;-74
2024/04/25 05:27:34;;;;;;;1048.17;966.17;;;4.30;99.90;;;;;;5402600;26;20453;-74
2024/04/25 05:30:02;;;;;;;1077.77;993.20;;;4.40;99.90;;;;;;5397742;26;20560;-73
2024/04/25 05:32:31;;;;;;;1079.40;995.33;;;4.40;99.90;;;;;;5379713;26;21074;-73
2024/04/25 05:35:02;;;;;;;1081.63;997.03;;;4.60;99.90;;;;;;5399673;26;20579;-73
2024/04/25 05:37:30;;;;;;;1045.73;963.73;;;4.70;99.90;;;;;;5396209;26;20526;-74
2024/04/25 05:40:01;;;;;;;1019.07;938.97;;;4.80;99.90;;;;;;5397728;26;20526;-73
2024/04/25 05:42:30;;;;;;;1020.90;939.60;;;4.90;99.90;;;;;;5402255;26;21014;-73
2024/04/25 05:44:58;;;;;;;964.37;887.83;;;5.20;99.90;;;;;;5400756;26;20469;-73
2024/04/25 05:47:27;;;;;;;885.00;820.10;;;5.40;99.90;;;;;;5381178;26;20481;-73
2024/04/25 05:49:55;;;;;;;868.67;812.17;;;5.60;99.90;;;;;;5381374;26;20470;-73
2024/04/25 05:52:26;;;;;;;857.20;808.93;;;5.70;99.90;;;;;;5380331;26;20458;-73
2024/04/25 05:54:55;;;;;;;818.93;779.53;;;5.80;99.90;;;;;;5381068;26;20554;-73
2024/04/25 05:57:26;;;;;;;796.67;761.73;;;5.80;99.90;;;;;;5375924;26;20859;-73
2024/04/25 05:59:54;;;;;;;728.90;701.60;;;5.90;99.90;;;;;;5401528;26;20532;-73
2024/04/25 06:02:24;;;;;;;722.10;694.70;;;5.90;99.90;;;;;;5395581;26;20515;-73
2024/04/25 06:04:53;;;;;;;782.13;749.80;;;5.90;99.90;;;;;;5395838;26;21079;-72
2024/04/25 06:07:21;;;;;;;701.97;675.10;;;6.00;99.90;;;;;;5394759;26;20889;-73
2024/04/25 06:09:51;;;;;;;601.20;580.70;;;5.90;99.90;;;;;;5381167;26;20515;-73
2024/04/25 06:12:20;;;;;;;656.73;633.33;;;5.90;99.90;;;;;;5381425;26;20458;-73
2024/04/25 06:14:51;;;;;;;699.17;671.93;;;5.90;99.90;;;;;;5394817;26;20507;-73
2024/04/25 06:17:19;;;;;;;703.83;676.47;;;5.80;99.90;;;;;;5373322;26;20460;-73
2024/04/25 06:19:48;;;;;;;763.77;732.27;;;5.80;99.90;;;;;;5388281;26;21024;-72
2024/04/25 06:22:16;;;;;;;785.47;751.27;;;5.80;99.90;;;;;;5374662;26;20459;-72
2024/04/25 06:24:45;;;;;;;815.53;777.97;;;5.90;99.90;;;;;;5358656;26;20938;-73
2024/04/25 06:27:13;;;;;;;843.97;802.57;;;5.90;99.90;;;;;;5395112;26;20573;-73
2024/04/25 06:29:42;;;;;;;845.27;801.07;;;6.00;99.90;;;;;;5383953;26;21133;-73
2024/04/25 06:32:13;;;;;;;861.33;813.30;;;6.20;99.90;;;;;;5388902;26;20524;-73
2024/04/25 06:34:41;;;;;;;856.07;809.47;;;6.40;99.90;;;;;;5357894;26;20577;-73
2024/04/25 06:37:10;;;;;;;843.50;801.20;;;6.60;99.90;;;;;;5398753;26;20484;-73
2024/04/25 06:39:38;;;;;;;815.63;777.13;;;6.70;99.90;;;;;;5384552;26;20455;-73
2024/04/25 06:42:07;;;;;;;756.60;723.83;;;6.80;99.90;;;;;;5370731;26;20462;-72
2024/04/25 06:44:33;;;;;;;627.37;602.00;;;7.10;99.90;;;;;;5393205;26;20471;-72
2024/04/25 06:47:01;;;;;;;500.43;481.87;;;7.10;96.90;;;;;;5398001;26;20874;-73
2024/04/25 06:49:32;;;;;;;419.90;404.40;;;7.20;97.00;;;;;;5394122;26;20346;-72
2024/04/25 06:52:01;;;;;;;393.57;379.27;;;7.30;97.00;;;;;;5393944;26;21099;-73
2024/04/25 06:54:30;;;;;;;356.10;343.50;;;7.40;97.00;;;;;;5388966;26;20578;-73
2024/04/25 06:56:58;;;;;;;284.47;274.17;;;7.40;96.80;;;;;;5398722;26;20469;-72
2024/04/25 06:59:27;;;;;;;242.83;233.87;;;7.50;94.30;;;;;;5394165;26;20470;-73
2024/04/25 07:01:56;;;;;;;171.03;164.13;;;7.50;93.40;;;;;;5393885;26;20454;-72
2024/04/25 07:04:24;;;;;;;161.60;154.37;;;7.50;90.50;;;;;;5369194;26;20566;-72
2024/04/25 07:06:55;;;;;;;152.30;145.77;;;7.60;90.50;;;;;;5358832;26;20486;-72
2024/04/25 07:09:24;;;;;;;104.93;99.17;;;7.40;90.40;;;;;;5392821;26;20531;-71
2024/04/25 07:11:53;;;;;;;77.90;73.27;;;7.20;90.30;;;;;;5381988;26;20459;-71
2024/04/25 07:14:22;;;;;;;106.90;102.00;;;7.00;90.20;;;;;;5395580;26;20516;-72
2024/04/25 07:16:50;;;;;;;151.10;143.30;;;7.00;90.70;;;;;;5375967;26;20828;-72
2024/04/25 07:19:19;;;;;;;143.33;137.03;;;7.20;93.30;;;;;;5360799;26;20515;-72
2024/04/25 07:21:48;;;;;;;144.43;138.37;;;7.10;90.30;;;;;;5375702;26;20460;-71
2024/04/25 07:24:19;;;;;;;239.50;230.50;;;7.30;90.30;;;;;;5379713;26;20458;-72
2024/04/25 07:26:48;;;;;;;108.93;103.33;;;7.70;90.50;;;;;;5388872;26;20519;-72
2024/04/25 07:29:16;;;;;;;87.00;82.40;;;7.90;84.00;;;;;;5399345;26;20561;-72
2024/04/25 07:31:45;;;;;;;60.33;57.23;;;8.20;82.50;;;;;;5398566;26;20853;-72
2024/04/25 07:34:13;;;;;;;28.63;20.03;;;8.50;76.50;;;;;;5382684;26;20581;-72
2024/04/25 07:36:42;;;;;;;26.70;23.97;;;8.60;68.90;;;;;;5381763;26;20558;-72
2024/04/25 07:39:10;;;;;;;25.17;22.83;;;8.80;70.10;;;;;;5348503;26;20478;-72
2024/04/25 07:41:41;;;;;;;21.03;18.70;;;8.80;74.50;;;;;;5390379;26;20476;-72
2024/04/25 07:44:09;;;;;;;13.90;10.93;;;9.00;61.10;;;;;;5393331;26;20945;-72
2024/04/25 07:46:38;;;;;;;19.50;9.23;;;9.00;61.00;;;;;;5375456;26;20585;-72
2024/04/25 07:49:07;;;;;;;19.50;10.47;;;8.90;53.80;;;;;;5362180;26;20802;-72
2024/04/25 07:51:35;;;;;;;14.27;12.97;;;8.60;53.90;;;;;;5374752;26;20455;-72
2024/04/25 07:54:04;;;;;;;15.80;13.90;;;8.70;60.50;;;;;;5383597;26;20782;-72
2024/04/25 07:56:33;;;;;;;15.55;13.55;;;8.40;54.10;;;;;;5370510;26;20368;-72
2024/04/25 07:59:04;;;;;;;18.60;15.20;;;8.50;60.40;;;;;;5385087;26;21143;-72
2024/04/25 08:01:32;;;;;;;15.67;12.93;;;8.40;60.40;;;;;;5376662;26;21024;-72
2024/04/25 08:04:01;;;;;;;13.90;9.73;;;8.40;60.50;;;;;;5369614;26;20360;-72
2024/04/25 08:06:32;;;;;;;17.13;10.07;;;8.30;59.30;;;;;;5352475;26;20475;-72
2024/04/25 08:09:00;;;;;;;31.33;13.00;;;8.20;60.00;;;;;;5390118;26;20448;-71
2024/04/25 08:11:29;;;;;;;31.40;29.10;;;8.20;60.30;;;;;;5361868;26;20366;-71
2024/04/25 08:13:57;;;;;;;34.00;31.50;;;8.40;60.60;;;;;;5377367;26;20755;-71
2024/04/25 08:16:28;;;;;;;32.93;30.40;;;8.50;60.70;;;;;;5396829;26;20242;-71
2024/04/25 08:18:57;;;;;;;21.63;12.20;;;8.80;56.30;;;;;;5388889;26;20585;-71
2024/04/25 08:21:25;;;;;;;13.87;9.90;;;9.00;52.70;;;;;;5405064;26;20500;-72
2024/04/25 08:23:54;;;;;;;16.13;9.13;;;9.20;52.80;;;;;;5359799;26;20475;-71
2024/04/25 08:26:25;;;;;;;13.97;8.67;;;9.40;47.50;;;;;;5376864;26;20464;-71
2024/04/25 08:28:53;;;;;;;13.83;9.17;;;9.60;44.50;;;;;;5375170;26;20466;-70
2024/04/25 08:31:22;;;;;;;29.83;9.10;;;10.00;43.90;;;;;;5403342;26;21026;-72
2024/04/25 08:33:53;;;;;;;11.80;8.80;;;10.40;44.20;;;;;;5402776;26;20792;-72
2024/04/25 08:36:21;;;;;;;11.00;7.17;;;10.40;33.90;;;;;;5376671;26;20462;-72
2024/04/25 08:38:50;;;;;;;12.90;7.60;;;10.30;35.20;;;;;;5376092;26;21020;-72
2024/04/25 08:41:19;;;;;;;9.57;6.27;;;10.40;35.30;;;;;;5374420;26;20583;-71
2024/04/25 08:43:47;;;;;;;15.00;7.50;;;10.40;29.80;;;;;;5389335;26;20580;-72
2024/04/25 08:46:22;;;;;;;17.43;6.40;;;10.80;35.70;;;;;;5382215;26;20465;-72
2024/04/25 08:48:54;;;;;;;16.80;6.53;;;11.10;35.20;;;;;;5397252;26;20461;-72
2024/04/25 08:51:26;;;;;;;18.57;5.90;;;11.50;28.00;;;;;;5376571;26;21054;-72
2024/04/25 08:53:56;;;;;;;9.87;5.33;;;11.50;28.70;;;;;;5387629;26;20458;-72
2024/04/25 08:56:27;;;;;;;9.33;5.50;;;11.70;28.20;;;;;;5389389;26;20524;-72
2024/04/25 08:58:55;;;;;;;11.23;4.47;;;12.40;6.70;;;;;;5347175;26;20471;-72
2024/04/25 09:01:26;;;;;;;12.90;4.20;;;12.50;1.00;;;;;;5355001;26;20477;-72
2024/04/25 09:03:57;;;;;;;10.60;4.20;;;12.00;1.00;;;;;;5381977;26;20467;-72
2024/04/25 09:06:26;;;;;;;13.40;4.53;;;11.90;1.00;;;;;;5396683;26;20473;-73
2024/04/25 09:08:54;;;;;;;11.67;4.37;;;12.40;1.00;;;;;;5396070;26;20576;-72
2024/04/25 09:11:23;;;;;;;6.40;3.17;;;12.20;1.00;;;;;;5376360;26;20457;-72
2024/04/25 09:13:55;;;;;;;6.80;3.60;;;11.90;1.00;;;;;;5359091;26;20487;-72
2024/04/25 09:16:24;;;;;;;8.30;3.53;;;12.40;1.00;;;;;;5383458;26;20471;-72
2024/04/25 09:18:53;;;;;;;8.77;3.50;;;12.60;1.00;;;;;;5382400;26;20484;-72
2024/04/25 09:21:24;;;;;;;10.50;4.07;;;12.50;1.00;;;;;;5368345;26;20461;-72
2024/04/25 09:23:52;;;;;;;13.00;5.03;;;12.40;1.00;;;;;;5395964;26;20485;-73
2024/04/25 09:26:22;;;;;;;12.33;3.87;;;12.40;1.00;;;;;;5375145;26;20882;-72
2024/04/25 09:28:52;;;;;;;14.43;4.97;;;13.10;1.00;;;;;;5375507;26;20466;-73
2024/04/25 09:31:22;;;;;;;14.43;4.17;;;13.10;1.00;;;;;;5396424;26;20478;-72
2024/04/25 09:33:50;;;;;;;12.13;2.83;;;13.20;1.00;;;;;;5396055;26;20450;-73
2024/04/25 09:36:18;;;;;;;7.97;2.90;;;13.50;1.00;;;;;;5373528;26;20908;-73
2024/04/25 09:38:50;;;;;;;8.80;4.33;;;13.80;1.00;;;;;;5389228;26;20571;-73
2024/04/25 09:41:19;;;;;;;9.93;2.77;;;13.70;1.00;;;;;;5388153;26;20517;-72
2024/04/25 09:43:49;;;;;;;8.83;2.83;;;13.50;1.00;;;;;;5388243;26;21071;-73
2024/04/25 09:46:24;;;;;;;10.63;3.40;;;13.50;1.00;;;;;;5381527;26;20502;-73
2024/04/25 09:48:55;;;;;;;10.80;2.80;;;13.80;1.00;;;;;;5396160;26;20580;-73
2024/04/25 09:51:31;;;;;;;10.10;2.47;;;14.70;1.00;;;;;;5396192;26;20458;-73
2024/04/25 09:54:08;;;;;;;9.13;2.60;;;14.30;1.00;;;;;;5394107;26;20798;-73
2024/04/25 09:56:39;;;;;;;7.47;2.53;;;14.20;1.00;;;;;;5382459;26;20464;-73
2024/04/25 09:59:20;;;;;;;10.27;2.33;;;13.70;1.00;;;;;;5387323;26;20469;-72
2024/04/25 10:01:50;;;;;;;7.00;2.37;;;12.90;1.00;;;;;;5388696;26;21007;-73
2024/04/25 10:04:19;;;;;;;10.80;2.57;;;13.00;1.00;;;;;;5396069;26;20515;-73
2024/04/25 10:06:48;;;;;;;9.53;2.50;;;13.70;1.00;;;;;;5395862;26;20458;-73
2024/04/25 10:09:17;;;;;;;9.40;3.57;;;13.70;1.00;;;;;;5401734;26;20449;-73
2024/04/25 10:11:49;;;;;;;9.80;2.40;;;13.00;1.00;;;;;;5388872;26;21126;-73
2024/04/25 10:14:25;;;;;;;10.00;3.07;;;12.80;1.00;;;;;;5381959;26;20470;-73
2024/04/25 10:16:53;;;;;;;7.67;2.83;;;12.50;1.00;;;;;;5395351;26;20476;-73
2024/04/25 10:19:22;;;;;;;7.83;2.93;;;12.70;1.00;;;;;;5367672;26;20462;-73
2024/04/25 10:21:52;;;;;;;6.90;2.60;;;13.10;1.00;;;;;;5381974;26;20476;-73
2024/04/25 10:24:24;;;;;;;23.33;3.93;;;12.80;1.00;;;;;;5381859;26;20466;-73
2024/04/25 10:26:52;;;;;;;8.60;3.03;;;13.10;1.00;;;;;;5395884;26;20525;-73
2024/04/25 10:29:32;;;;;;;7.23;2.97;;;13.40;1.00;;;;;;5374961;26;20460;-73
2024/04/25 10:32:00;;;;;;;9.07;2.90;;;13.90;1.00;;;;;;5377960;26;20474;-73
2024/04/25 10:34:28;;;;;;;8.07;2.43;;;14.20;1.00;;;;;;5393009;26;20478;-72
2024/04/25 10:36:57;;;;;;;6.70;3.10;;;14.80;1.00;;;;;;5380896;26;20598;-74
2024/04/25 10:39:28;;;;;;;12.43;3.33;;;15.40;1.00;;;;;;5395617;26;20859;-73
2024/04/25 10:41:56;;;;;;;9.50;3.33;;;15.50;1.00;;;;;;5394993;26;20474;-73
2024/04/25 10:44:25;;;;;;;7.77;3.07;;;15.50;1.00;;;;;;5388562;26;20464;-73
2024/04/25 10:46:53;;;;;;;6.93;2.73;;;16.00;1.00;;;;;;5400935;26;20472;-73
2024/04/25 10:49:22;;;;;;;10.33;2.80;;;16.60;1.00;;;;;;5374156;26;20608;-73
2024/04/25 10:51:51;;;;;;;8.23;2.90;;;16.30;1.00;;;;;;5401523;26;20516;-74
2024/04/25 10:54:19;;;;;;;9.13;3.50;;;16.30;1.00;;;;;;5373583;26;20460;-74
2024/04/25 10:56:51;;;;;;;6.67;2.40;;;16.40;1.00;;;;;;5373114;26;20514;-74
2024/04/25 10:59:21;;;;;;;7.90;2.50;;;16.20;1.00;;;;;;5366504;26;20470;-74
2024/04/25 11:01:49;;;;;;;7.63;2.43;;;17.10;1.00;;;;;;5395388;26;20466;-74
2024/04/25 11:04:18;;;;;;;9.10;2.93;;;16.20;1.00;;;;;;5374960;26;20467;-72
2024/04/25 11:06:47;;;;;;;6.80;2.33;;;15.80;1.00;;;;;;5345625;26;20479;-72
2024/04/25 11:09:18;;;;;;;9.00;3.30;;;15.60;1.00;;;;;;5394466;26;20506;-72
2024/04/25 11:11:47;;;;;;;9.63;4.27;;;15.30;1.00;;;;;;5395011;26;20473;-72
2024/04/25 11:14:19;;;;;;;14.50;3.33;;;14.80;1.00;;;;;;5394230;26;20466;-72
2024/04/25 11:16:48;;;;;;;13.70;4.20;;;15.10;1.00;;;;;;5394751;26;20489;-72
2024/04/25 11:19:19;;;;;;;7.17;2.90;;;14.80;1.00;;;;;;5394797;26;21052;-72
2024/04/25 11:21:50;;;;;;;6.63;2.60;;;14.60;1.00;;;;;;5395048;26;20463;-72
2024/04/25 11:24:21;;;;;;;10.37;3.10;;;14.10;1.00;;;;;;5380652;26;20819;-72
2024/04/25 11:26:50;;;;;;;9.50;3.20;;;13.40;1.00;;;;;;5394508;26;20470;-72
2024/04/25 11:29:21;;;;;;;10.20;3.83;;;12.90;1.00;;;;;;5378644;26;20366;-72
2024/04/25 11:31:49;;;;;;;9.90;3.00;;;12.70;1.00;;;;;;5379288;26;20492;-73
2024/04/25 11:34:22;;;;;;;10.40;3.63;;;13.20;1.00;;;;;;5356588;26;20366;-73
2024/04/25 11:37:01;;;;;;;9.77;2.90;;;13.30;1.00;;;;;;5375766;26;20567;-71
2024/04/25 11:39:30;;;;;;;8.83;3.30;;;13.10;1.00;;;;;;5359750;26;20515;-72
2024/04/25 11:41:58;;;;;;;9.40;2.97;;;13.40;1.00;;;;;;5376635;26;20529;-72
2024/04/25 11:44:31;;;;;;;7.60;2.83;;;13.60;1.00;;;;;;5362182;26;20464;-72
2024/04/25 11:47:00;;;;;;;10.27;2.87;;;13.70;1.00;;;;;;5361291;26;20535;-72
2024/04/25 11:49:28;;;;;;;8.33;3.20;;;13.80;1.00;;;;;;5361879;26;20527;-72
2024/04/25 11:51:57;;;;;;;7.97;3.37;;;14.10;1.00;;;;;;5378777;26;21028;-72
2024/04/25 11:54:25;;;;;;;7.77;3.00;;;13.90;1.00;;;;;;5391795;26;21026;-72
2024/04/25 11:56:54;;;;;;;7.80;2.93;;;13.60;1.00;;;;;;5390018;26;20899;-72
2024/04/25 11:59:22;;;;;;;7.40;2.33;;;13.80;1.00;;;;;;5374727;26;20471;-72
2024/04/25 12:01:54;;;;;;;9.57;2.80;;;13.50;1.00;;;;;;5376397;26;20822;-72
2024/04/25 12:04:22;;;;;;;9.07;2.93;;;13.20;1.00;;;;;;5357373;26;20482;-72
2024/04/25 12:06:50;;;;;;;12.17;2.93;;;13.30;1.00;;;;;;5369688;26;20485;-72
2024/04/25 12:09:19;;;;;;;11.70;2.87;;;13.00;1.00;;;;;;5350090;26;20471;-72
2024/04/25 12:11:49;;;;;;;7.97;3.10;;;12.80;1.00;;;;;;5377979;26;20745;-72
2024/04/25 12:14:17;;;;;;;12.43;3.37;;;12.70;1.00;;;;;;5397263;26;21000;-72
2024/04/25 12:16:46;;;;;;;9.73;3.03;;;12.80;1.00;;;;;;5397089;26;20466;-72
2024/04/25 12:19:17;;;;;;;7.97;2.60;;;13.00;1.00;;;;;;5377605;26;20471;-72
2024/04/25 12:21:45;;;;;;;11.93;3.10;;;13.20;1.00;;;;;;5364820;26;20572;-72
2024/04/25 12:24:13;;;;;;;8.87;4.53;;;13.40;1.00;;;;;;5399980;26;20518;-72
2024/04/25 12:26:44;;;;;;;14.23;3.53;;;13.00;1.00;;;;;;5384814;26;20474;-72
2024/04/25 12:29:12;;;;;;;10.63;3.17;;;13.10;1.00;;;;;;5382149;26;20456;-73
2024/04/25 12:31:42;;;;;;;6.63;2.33;;;13.10;1.00;;;;;;5384646;26;20532;-71
2024/04/25 12:34:10;;;;;;;9.10;2.60;;;13.50;1.00;;;;;;5377844;26;20470;-71
2024/04/25 12:36:42;;;;;;;10.10;3.00;;;13.20;1.00;;;;;;5393160;26;21042;-72
2024/04/25 12:39:10;;;;;;;9.23;2.70;;;13.50;1.00;;;;;;5366118;26;20467;-72
2024/04/25 12:41:38;;;;;;;6.13;2.53;;;14.00;1.00;;;;;;5384780;26;20895;-72
2024/04/25 12:44:08;;;;;;;7.60;2.80;;;14.70;1.00;;;;;;5345803;26;20563;-72